Time;durP1;ratioP1;P1;durP2;ratioP2;P2;SDS_P1;SDS_P2;PMS_P1;PMS_P2;Temp;Humidity;BMP_temperature;BMP_pressure;BME280_temperature;BME280_humidity;BME280_pressure;Samples;Min_cycle;Max_cycle;Signal;HPM_P1;HPM_P2
2023/05/15 00:00:53;;;;;;;14.67;13.27;;;14.50;99.90;;;;;;4978210;28;20494;-74
2023/05/15 00:03:23;;;;;;;15.93;14.73;;;14.50;99.90;;;;;;4978529;28;20965;-73
2023/05/15 00:05:51;;;;;;;15.60;14.43;;;14.50;99.90;;;;;;4977490;28;20508;-74
2023/05/15 00:08:19;;;;;;;15.43;14.23;;;14.40;99.90;;;;;;4974453;28;20445;-73
2023/05/15 00:10:47;;;;;;;15.00;13.90;;;14.40;99.90;;;;;;4978767;28;20438;-73
2023/05/15 00:13:29;;;;;;;15.67;14.37;;;14.40;99.90;;;;;;4977568;28;20765;-74
2023/05/15 00:15:57;;;;;;;15.40;14.30;;;14.30;99.90;;;;;;4976922;28;20453;-73
2023/05/15 00:18:27;;;;;;;14.80;13.43;;;14.30;99.90;;;;;;4973856;28;20816;-73
2023/05/15 00:20:55;;;;;;;16.77;15.37;;;14.30;99.90;;;;;;4957671;28;20480;-73
2023/05/15 00:23:23;;;;;;;15.57;14.37;;;14.20;99.90;;;;;;4957395;28;20804;-73
2023/05/15 00:25:51;;;;;;;15.97;14.77;;;14.20;99.90;;;;;;4957578;28;21034;-73
2023/05/15 00:28:19;;;;;;;15.47;14.27;;;14.10;99.90;;;;;;4957181;29;20447;-73
2023/05/15 00:30:48;;;;;;;14.63;13.60;;;14.10;99.90;;;;;;4957322;28;20469;-73
2023/05/15 00:33:16;;;;;;;15.43;14.13;;;14.10;99.90;;;;;;4956002;29;20454;-73
2023/05/15 00:35:46;;;;;;;15.30;14.10;;;14.10;99.90;;;;;;4955954;28;20902;-73
2023/05/15 00:38:14;;;;;;;16.10;14.80;;;14.00;99.90;;;;;;4955870;28;21006;-74
2023/05/15 00:40:43;;;;;;;14.90;13.57;;;14.00;99.90;;;;;;4957173;28;20471;-73
2023/05/15 00:43:12;;;;;;;15.63;14.27;;;14.00;99.90;;;;;;4954877;28;20443;-73
2023/05/15 00:45:43;;;;;;;13.73;12.70;;;14.00;99.90;;;;;;4956745;29;20508;-73
2023/05/15 00:48:12;;;;;;;15.20;14.10;;;13.90;99.90;;;;;;4956999;28;20427;-73
2023/05/15 00:50:41;;;;;;;14.70;13.60;;;13.90;99.90;;;;;;4956806;28;20434;-73
2023/05/15 00:53:11;;;;;;;14.87;13.67;;;13.90;99.90;;;;;;4957192;28;20470;-73
2023/05/15 00:55:40;;;;;;;15.57;14.30;;;13.80;99.90;;;;;;4956826;28;20459;-71
2023/05/15 00:58:10;;;;;;;14.93;13.83;;;13.80;99.90;;;;;;4954990;29;20549;-71
2023/05/15 01:00:38;;;;;;;15.50;14.40;;;13.80;99.90;;;;;;4956637;28;20880;-71
2023/05/15 01:03:07;;;;;;;15.37;14.17;;;13.80;99.90;;;;;;4954996;29;21064;-71
2023/05/15 01:05:35;;;;;;;15.00;13.90;;;13.70;99.90;;;;;;4954762;29;20572;-71
2023/05/15 01:08:10;;;;;;;16.87;15.60;;;13.70;99.90;;;;;;4956218;28;20442;-71
2023/05/15 01:10:42;;;;;;;17.03;15.80;;;13.70;99.90;;;;;;4961252;28;20837;-71
2023/05/15 01:13:13;;;;;;;16.60;15.07;;;13.60;99.90;;;;;;4957590;28;20834;-72
2023/05/15 01:15:42;;;;;;;15.40;14.20;;;13.60;99.90;;;;;;4954709;29;20478;-72
2023/05/15 01:18:11;;;;;;;19.20;17.80;;;13.60;99.90;;;;;;4954669;29;20462;-72
2023/05/15 01:20:50;;;;;;;17.10;15.83;;;13.60;99.90;;;;;;4956499;28;20833;-72
2023/05/15 01:23:29;;;;;;;18.90;17.03;;;13.50;99.90;;;;;;4956213;28;20426;-72
2023/05/15 01:26:43;;;;;;;18.13;16.70;;;13.60;99.90;;;;;;4956195;28;20924;-72
2023/05/15 01:29:19;;;;;;;18.87;17.37;;;13.50;99.90;;;;;;4896668;29;20461;-72
2023/05/15 01:31:54;;;;;;;19.70;18.13;;;13.50;99.90;;;;;;4951625;28;20493;-72
2023/05/15 01:34:29;;;;;;;19.60;17.80;;;13.50;99.90;;;;;;4954638;29;20472;-72
2023/05/15 01:37:02;;;;;;;19.13;17.70;;;13.40;99.90;;;;;;4954537;29;20529;-72
2023/05/15 01:39:33;;;;;;;18.67;17.37;;;13.40;99.90;;;;;;4967500;28;20847;-72
2023/05/15 01:42:07;;;;;;;19.93;18.43;;;13.40;99.90;;;;;;4975288;28;20422;-72
2023/05/15 01:44:41;;;;;;;18.73;17.43;;;13.30;99.90;;;;;;4974391;28;20923;-72
2023/05/15 01:47:14;;;;;;;20.30;18.70;;;13.30;99.90;;;;;;4973674;28;20532;-72
2023/05/15 01:49:44;;;;;;;20.37;18.87;;;13.30;99.90;;;;;;4975094;28;20423;-72
2023/05/15 01:52:18;;;;;;;20.27;18.50;;;13.20;99.90;;;;;;4975092;28;20473;-72
2023/05/15 01:54:49;;;;;;;20.80;19.17;;;13.20;99.90;;;;;;4973470;28;20479;-72
2023/05/15 01:57:18;;;;;;;21.73;19.73;;;13.20;99.90;;;;;;4973289;28;20950;-72
2023/05/15 01:59:48;;;;;;;20.87;19.30;;;13.20;99.90;;;;;;4973083;28;20509;-72
2023/05/15 02:02:18;;;;;;;21.20;19.60;;;13.20;99.90;;;;;;4974481;28;20445;-72
2023/05/15 02:04:47;;;;;;;22.07;20.10;;;13.10;99.90;;;;;;4973105;28;20482;-72
2023/05/15 02:07:16;;;;;;;21.53;19.50;;;13.10;99.90;;;;;;4973232;28;20505;-72
2023/05/15 02:09:46;;;;;;;20.90;19.20;;;13.10;99.90;;;;;;4973371;28;20803;-72
2023/05/15 02:12:16;;;;;;;20.23;18.70;;;13.10;99.90;;;;;;4971060;28;20481;-72
2023/05/15 02:14:45;;;;;;;19.67;18.17;;;13.10;99.90;;;;;;4958405;28;20482;-72
2023/05/15 02:17:15;;;;;;;20.03;18.33;;;13.00;99.90;;;;;;4973457;28;20457;-72
2023/05/15 02:19:43;;;;;;;19.60;18.10;;;13.00;99.90;;;;;;4974840;28;20485;-72
2023/05/15 02:22:11;;;;;;;19.00;17.50;;;12.90;99.90;;;;;;4973724;28;20536;-72
2023/05/15 02:24:40;;;;;;;20.07;18.50;;;12.90;99.90;;;;;;4975007;28;20552;-72
2023/05/15 02:27:15;;;;;;;18.90;17.50;;;12.90;99.90;;;;;;4974745;28;20434;-72
2023/05/15 02:29:55;;;;;;;19.50;18.00;;;12.80;99.90;;;;;;4973140;28;20504;-72
2023/05/15 02:32:34;;;;;;;19.90;18.40;;;12.80;99.90;;;;;;4975178;28;20422;-72
2023/05/15 02:35:13;;;;;;;22.00;20.20;;;12.80;99.90;;;;;;4975623;28;20472;-72
2023/05/15 02:37:46;;;;;;;22.77;21.00;;;12.80;99.90;;;;;;4973366;28;20449;-72
2023/05/15 02:40:16;;;;;;;21.97;20.33;;;12.80;99.90;;;;;;4973278;28;20524;-72
2023/05/15 02:42:47;;;;;;;20.70;19.17;;;12.70;99.90;;;;;;4974480;28;20492;-72
2023/05/15 02:45:17;;;;;;;19.50;18.00;;;12.70;99.90;;;;;;4976509;28;20457;-72
2023/05/15 02:47:49;;;;;;;22.13;20.47;;;12.60;99.90;;;;;;4975186;28;20438;-72
2023/05/15 02:50:17;;;;;;;21.43;19.77;;;12.60;99.90;;;;;;4976823;28;20441;-72
2023/05/15 02:52:45;;;;;;;23.07;21.37;;;12.60;99.90;;;;;;4985367;28;20508;-72
2023/05/15 02:55:14;;;;;;;22.10;20.50;;;12.60;99.90;;;;;;4988064;28;20457;-72
2023/05/15 02:57:42;;;;;;;24.40;22.50;;;12.60;99.90;;;;;;4987775;28;20521;-72
2023/05/15 03:00:11;;;;;;;25.30;23.40;;;12.50;99.90;;;;;;4977075;28;20986;-72
2023/05/15 03:02:39;;;;;;;25.57;23.67;;;12.50;99.90;;;;;;4978167;28;20441;-72
2023/05/15 03:05:09;;;;;;;26.50;24.50;;;12.40;99.90;;;;;;4978475;28;20879;-72
2023/05/15 03:07:37;;;;;;;28.77;26.57;;;12.40;99.90;;;;;;4980311;28;20484;-72
2023/05/15 03:10:07;;;;;;;26.67;24.57;;;12.40;99.90;;;;;;4980959;28;20444;-72
2023/05/15 03:12:35;;;;;;;29.10;26.80;;;12.40;99.90;;;;;;4982906;28;20852;-72
2023/05/15 03:15:03;;;;;;;27.13;24.87;;;12.40;99.90;;;;;;4976877;28;21066;-73
2023/05/15 03:17:32;;;;;;;27.83;25.73;;;12.40;99.90;;;;;;4978107;28;20476;-72
2023/05/15 03:20:00;;;;;;;29.77;27.47;;;12.40;99.90;;;;;;4977808;28;20461;-72
2023/05/15 03:22:29;;;;;;;30.63;28.23;;;12.30;99.90;;;;;;4978964;28;20469;-72
2023/05/15 03:24:58;;;;;;;32.23;29.73;;;12.30;99.90;;;;;;4979041;28;20536;-72
2023/05/15 03:27:26;;;;;;;32.40;29.90;;;12.30;99.90;;;;;;4978764;28;20821;-71
2023/05/15 03:29:54;;;;;;;30.70;28.20;;;12.30;99.90;;;;;;4977410;28;21029;-72
2023/05/15 03:32:22;;;;;;;27.83;25.63;;;12.30;99.90;;;;;;4977776;28;20548;-72
2023/05/15 03:34:50;;;;;;;30.70;28.20;;;12.20;99.90;;;;;;4979759;28;20457;-72
2023/05/15 03:37:18;;;;;;;30.27;27.87;;;12.20;99.90;;;;;;4977348;28;20950;-72
2023/05/15 03:39:50;;;;;;;31.00;28.70;;;12.20;99.90;;;;;;4976423;28;20434;-72
2023/05/15 03:42:22;;;;;;;35.27;32.47;;;12.20;99.90;;;;;;4978361;28;20846;-71
2023/05/15 03:44:50;;;;;;;31.80;29.27;;;12.10;99.90;;;;;;4977610;28;20473;-72
2023/05/15 03:47:19;;;;;;;36.10;33.00;;;12.10;99.90;;;;;;4977213;28;20808;-72
2023/05/15 03:49:47;;;;;;;40.10;36.70;;;12.10;99.90;;;;;;4977548;28;20562;-72
2023/05/15 03:52:15;;;;;;;47.37;43.50;;;12.10;99.90;;;;;;4977402;28;20485;-72
2023/05/15 03:54:44;;;;;;;49.57;45.37;;;12.10;99.90;;;;;;4976280;28;20833;-72
2023/05/15 03:57:14;;;;;;;51.20;46.57;;;12.00;99.90;;;;;;4976909;28;20528;-72
2023/05/15 03:59:42;;;;;;;54.23;49.60;;;12.00;99.90;;;;;;4976729;28;20808;-72
2023/05/15 04:02:10;;;;;;;57.47;52.63;;;12.00;99.90;;;;;;4975313;28;20834;-72
2023/05/15 04:04:38;;;;;;;58.47;53.30;;;12.00;99.90;;;;;;4976920;28;20812;-72
2023/05/15 04:07:06;;;;;;;61.77;55.97;;;12.00;99.90;;;;;;4976636;28;20442;-72
2023/05/15 04:09:34;;;;;;;59.33;54.17;;;12.00;99.90;;;;;;4976489;28;20437;-72
2023/05/15 04:12:03;;;;;;;64.03;58.23;;;12.10;99.90;;;;;;4976688;28;20446;-72
2023/05/15 04:14:33;;;;;;;66.73;60.77;;;12.00;99.90;;;;;;4976712;28;20457;-72
2023/05/15 04:17:01;;;;;;;67.27;61.10;;;12.10;99.90;;;;;;4975205;28;20456;-72
2023/05/15 04:19:29;;;;;;;63.17;57.47;;;12.10;99.90;;;;;;4972931;28;20434;-72
2023/05/15 04:21:57;;;;;;;65.23;59.30;;;12.10;99.90;;;;;;4976441;28;20559;-72
2023/05/15 04:24:25;;;;;;;70.30;64.00;;;12.10;99.90;;;;;;4976437;28;20458;-72
2023/05/15 04:26:53;;;;;;;68.57;62.50;;;12.10;99.90;;;;;;4976362;28;20441;-73
2023/05/15 04:29:21;;;;;;;69.40;63.20;;;12.10;99.90;;;;;;4976340;28;20460;-72
2023/05/15 04:31:51;;;;;;;60.77;55.17;;;12.10;99.90;;;;;;4976873;28;20445;-73
2023/05/15 04:34:19;;;;;;;67.70;61.63;;;12.20;99.90;;;;;;4977531;28;20438;-72
2023/05/15 04:36:48;;;;;;;66.77;60.97;;;12.20;99.90;;;;;;4976618;28;20488;-72
2023/05/15 04:39:16;;;;;;;71.13;64.53;;;12.20;99.90;;;;;;4976865;28;20430;-73
2023/05/15 04:41:44;;;;;;;70.57;64.27;;;12.20;99.90;;;;;;4976065;28;20524;-72
2023/05/15 04:44:12;;;;;;;71.43;65.03;;;12.20;99.90;;;;;;4976378;28;20456;-72
2023/05/15 04:46:40;;;;;;;71.27;64.87;;;12.20;99.90;;;;;;4974874;28;20512;-72
2023/05/15 04:49:10;;;;;;;70.57;64.50;;;12.20;99.90;;;;;;4975940;28;20813;-72
2023/05/15 04:51:38;;;;;;;71.47;64.97;;;12.30;99.90;;;;;;4976063;28;20497;-72
2023/05/15 04:54:06;;;;;;;69.00;62.80;;;12.30;99.90;;;;;;4976103;28;20438;-72
2023/05/15 04:56:35;;;;;;;67.97;61.80;;;12.30;99.90;;;;;;4975782;28;20457;-72
2023/05/15 04:59:03;;;;;;;68.10;61.97;;;12.30;99.90;;;;;;4975596;28;20442;-72
2023/05/15 05:01:31;;;;;;;70.67;64.37;;;12.30;99.90;;;;;;4975538;28;20477;-73
2023/05/15 05:03:59;;;;;;;70.53;64.23;;;12.30;99.90;;;;;;4975448;28;20445;-72
2023/05/15 05:06:28;;;;;;;75.57;68.53;;;12.40;99.90;;;;;;4974283;28;20501;-72
2023/05/15 05:08:58;;;;;;;76.73;70.03;;;12.40;99.90;;;;;;4974313;28;20434;-72
2023/05/15 05:11:26;;;;;;;70.27;63.97;;;12.40;99.90;;;;;;4975504;28;20505;-72
2023/05/15 05:13:54;;;;;;;74.80;68.10;;;12.40;99.90;;;;;;4975622;28;20441;-72
2023/05/15 05:16:22;;;;;;;72.07;65.53;;;12.40;99.90;;;;;;4973869;28;20465;-72
2023/05/15 05:18:50;;;;;;;69.87;63.57;;;12.40;99.90;;;;;;4975556;28;20997;-72
2023/05/15 05:21:18;;;;;;;69.20;62.90;;;12.40;99.90;;;;;;4975243;28;20473;-72
2023/05/15 05:23:48;;;;;;;71.47;64.97;;;12.40;99.90;;;;;;4975243;28;20492;-72
2023/05/15 05:26:16;;;;;;;71.33;64.70;;;12.40;99.90;;;;;;4975148;28;20485;-72
2023/05/15 05:28:44;;;;;;;70.80;63.90;;;12.50;99.90;;;;;;4974681;28;20430;-71
2023/05/15 05:31:12;;;;;;;70.13;63.93;;;12.50;99.90;;;;;;4975523;28;20449;-72
2023/05/15 05:33:40;;;;;;;70.00;63.43;;;12.50;99.90;;;;;;4975195;28;20465;-71
2023/05/15 05:36:09;;;;;;;70.00;63.20;;;12.60;99.90;;;;;;4967017;28;20473;-72
2023/05/15 05:38:38;;;;;;;69.13;62.83;;;12.60;99.90;;;;;;4974940;28;20488;-72
2023/05/15 05:41:07;;;;;;;68.33;61.97;;;12.60;99.90;;;;;;4975108;28;20756;-72
2023/05/15 05:43:35;;;;;;;68.27;61.87;;;12.70;99.90;;;;;;4974815;28;20437;-72
2023/05/15 05:46:03;;;;;;;66.27;60.17;;;12.80;99.90;;;;;;4974730;28;20464;-72
2023/05/15 05:48:31;;;;;;;64.83;58.97;;;12.90;99.90;;;;;;4974732;28;20788;-72
2023/05/15 05:51:00;;;;;;;67.73;61.50;;;13.10;99.90;;;;;;4974624;28;20444;-72
2023/05/15 05:53:28;;;;;;;62.00;56.17;;;13.20;99.90;;;;;;4974855;28;20449;-72
2023/05/15 05:55:56;;;;;;;62.97;57.00;;;13.30;99.90;;;;;;4974510;28;20493;-72
2023/05/15 05:58:25;;;;;;;61.13;55.27;;;13.50;99.90;;;;;;4974451;28;20445;-72
2023/05/15 06:00:53;;;;;;;61.10;55.20;;;13.60;99.90;;;;;;4974585;28;20529;-72
2023/05/15 06:03:22;;;;;;;60.27;54.47;;;13.80;99.90;;;;;;4974640;28;21038;-72
2023/05/15 06:05:51;;;;;;;57.03;51.50;;;13.90;99.90;;;;;;4974517;28;20979;-73
2023/05/15 06:08:19;;;;;;;59.03;53.23;;;14.00;99.90;;;;;;4974443;28;20447;-73
2023/05/15 06:10:48;;;;;;;55.63;50.27;;;14.00;99.90;;;;;;4973325;28;20449;-73
2023/05/15 06:13:16;;;;;;;56.90;51.47;;;14.00;99.90;;;;;;4973117;28;20457;-73
2023/05/15 06:15:46;;;;;;;58.20;52.50;;;13.90;99.90;;;;;;4974421;28;20457;-73
2023/05/15 06:18:14;;;;;;;57.20;51.60;;;13.80;99.90;;;;;;4974123;28;20958;-72
2023/05/15 06:20:42;;;;;;;58.57;52.87;;;13.70;99.90;;;;;;4974280;28;20460;-73
2023/05/15 06:23:10;;;;;;;55.37;50.17;;;13.60;99.90;;;;;;4974516;28;20466;-72
2023/05/15 06:25:38;;;;;;;54.73;49.43;;;13.50;99.90;;;;;;4974139;28;20462;-72
2023/05/15 06:28:07;;;;;;;56.57;50.87;;;13.50;99.90;;;;;;4974204;28;20537;-72
2023/05/15 06:30:35;;;;;;;53.53;48.33;;;13.50;99.90;;;;;;4974178;28;20433;-72
2023/05/15 06:33:04;;;;;;;55.53;49.90;;;13.40;99.90;;;;;;4974449;28;20558;-72
2023/05/15 06:35:32;;;;;;;55.40;49.77;;;13.40;99.90;;;;;;4973989;28;20466;-72
2023/05/15 06:38:01;;;;;;;56.13;50.33;;;13.30;99.90;;;;;;4972783;28;20891;-72
2023/05/15 06:40:29;;;;;;;54.80;49.33;;;13.30;99.90;;;;;;4974634;28;20796;-72
2023/05/15 06:42:57;;;;;;;56.00;50.10;;;13.30;99.90;;;;;;4978044;28;20826;-72
2023/05/15 06:45:25;;;;;;;55.43;49.80;;;13.30;99.90;;;;;;4978099;28;20991;-72
2023/05/15 06:47:54;;;;;;;54.87;49.30;;;13.30;99.90;;;;;;4978133;28;20536;-72
2023/05/15 06:50:25;;;;;;;55.73;50.13;;;13.30;99.90;;;;;;4977996;28;20438;-72
2023/05/15 06:52:53;;;;;;;53.53;48.30;;;13.30;99.90;;;;;;4978307;28;20492;-72
2023/05/15 06:55:21;;;;;;;51.80;46.57;;;13.40;99.90;;;;;;4977828;28;20818;-72
2023/05/15 06:57:50;;;;;;;49.90;44.90;;;13.40;99.90;;;;;;4978073;28;20441;-72
2023/05/15 07:00:18;;;;;;;51.17;45.97;;;13.50;99.90;;;;;;4977868;28;20969;-72
2023/05/15 07:02:46;;;;;;;47.90;43.20;;;13.50;99.90;;;;;;4978513;28;20476;-72
2023/05/15 07:05:14;;;;;;;48.30;43.47;;;13.50;99.90;;;;;;4978121;28;20548;-72
2023/05/15 07:07:44;;;;;;;48.27;43.27;;;13.50;99.90;;;;;;4980576;28;20441;-72
2023/05/15 07:10:12;;;;;;;48.73;43.97;;;13.50;99.90;;;;;;4985182;28;20433;-72
2023/05/15 07:12:41;;;;;;;46.67;42.07;;;13.50;99.90;;;;;;4976628;28;20453;-71
2023/05/15 07:15:09;;;;;;;47.90;43.30;;;13.50;99.90;;;;;;4977821;28;20456;-71
2023/05/15 07:17:38;;;;;;;51.07;46.07;;;13.40;99.90;;;;;;4977748;28;20459;-71
2023/05/15 07:20:07;;;;;;;47.33;42.70;;;13.40;99.90;;;;;;4977979;28;20453;-71
2023/05/15 07:22:35;;;;;;;49.23;44.33;;;13.50;99.90;;;;;;4977854;28;20469;-71
2023/05/15 07:25:20;;;;;;;46.13;41.23;;;13.40;99.90;;;;;;4978046;28;20978;-71
2023/05/15 07:27:48;;;;;;;45.97;41.07;;;13.50;99.90;;;;;;4978248;28;20448;-71
2023/05/15 07:30:16;;;;;;;47.30;42.60;;;13.50;99.90;;;;;;4976511;28;20967;-72
2023/05/15 07:32:45;;;;;;;45.97;41.47;;;13.50;99.90;;;;;;4976167;28;20441;-72
2023/05/15 07:35:13;;;;;;;44.97;40.57;;;13.50;99.90;;;;;;4976431;28;20471;-71
2023/05/15 07:37:41;;;;;;;44.80;40.50;;;13.60;99.90;;;;;;4978893;28;20446;-71
2023/05/15 07:40:10;;;;;;;43.00;38.63;;;13.60;99.90;;;;;;4978923;28;20443;-71
2023/05/15 07:42:39;;;;;;;44.13;39.70;;;13.60;99.90;;;;;;4977954;28;20477;-72
2023/05/15 07:45:08;;;;;;;42.90;38.70;;;13.70;99.90;;;;;;4978653;28;20457;-71
2023/05/15 07:47:36;;;;;;;42.80;38.57;;;13.70;99.90;;;;;;4978259;28;20442;-71
2023/05/15 07:50:06;;;;;;;44.00;39.80;;;13.80;99.90;;;;;;4978270;28;20498;-71
2023/05/15 07:52:34;;;;;;;42.10;38.07;;;13.90;99.90;;;;;;4977205;28;20776;-71
2023/05/15 07:55:03;;;;;;;40.33;36.43;;;14.10;99.90;;;;;;4977581;28;20457;-71
2023/05/15 07:57:31;;;;;;;39.70;35.83;;;14.20;99.90;;;;;;4976360;28;20468;-72
2023/05/15 08:00:05;;;;;;;41.13;37.23;;;14.30;99.90;;;;;;4977161;28;20440;-72
2023/05/15 08:02:38;;;;;;;38.93;35.07;;;14.40;99.90;;;;;;4977335;28;20473;-71
2023/05/15 08:05:07;;;;;;;39.40;35.70;;;14.60;99.90;;;;;;4977538;28;20465;-72
2023/05/15 08:07:36;;;;;;;37.17;33.73;;;14.80;99.90;;;;;;4976446;28;20458;-71
2023/05/15 08:10:04;;;;;;;35.90;32.67;;;14.90;99.90;;;;;;4977147;28;20438;-71
2023/05/15 08:12:33;;;;;;;38.80;35.30;;;15.10;99.90;;;;;;4976772;28;20473;-72
2023/05/15 08:15:03;;;;;;;34.40;31.33;;;15.20;99.90;;;;;;4977280;28;20467;-71
2023/05/15 08:17:31;;;;;;;33.30;30.30;;;15.30;99.90;;;;;;4976589;28;20469;-72
2023/05/15 08:19:59;;;;;;;33.63;30.50;;;15.50;99.90;;;;;;4976564;28;20438;-71
2023/05/15 08:22:29;;;;;;;33.30;30.17;;;15.60;99.90;;;;;;4977001;28;20454;-71
2023/05/15 08:24:58;;;;;;;29.83;27.07;;;15.80;99.90;;;;;;4976746;28;20494;-73
2023/05/15 08:27:26;;;;;;;32.40;29.50;;;15.90;99.90;;;;;;4976663;28;20419;-71
2023/05/15 08:29:54;;;;;;;32.07;29.20;;;16.00;99.90;;;;;;4976906;28;20443;-71
2023/05/15 08:32:24;;;;;;;30.20;27.40;;;16.10;99.90;;;;;;4976448;28;20935;-72
2023/05/15 08:34:52;;;;;;;32.03;29.03;;;16.20;99.90;;;;;;4976607;28;20493;-71
2023/05/15 08:37:20;;;;;;;30.17;27.47;;;16.40;99.90;;;;;;4975231;28;20955;-72
2023/05/15 08:39:48;;;;;;;32.00;29.10;;;16.40;99.90;;;;;;4976667;28;20445;-72
2023/05/15 08:42:21;;;;;;;30.50;27.70;;;16.50;99.90;;;;;;4976563;28;20464;-71
2023/05/15 08:44:50;;;;;;;30.00;27.20;;;16.60;99.90;;;;;;4976356;28;20474;-72
2023/05/15 08:47:19;;;;;;;31.07;28.37;;;16.70;99.90;;;;;;4976664;28;20445;-71
2023/05/15 08:49:55;;;;;;;32.80;29.80;;;16.80;99.90;;;;;;4976646;28;20416;-72
2023/05/15 08:52:25;;;;;;;31.87;29.00;;;16.90;99.90;;;;;;4976702;28;20403;-72
2023/05/15 08:54:54;;;;;;;30.90;28.00;;;17.00;99.90;;;;;;4976711;28;20434;-71
2023/05/15 08:57:22;;;;;;;29.97;27.20;;;17.10;99.90;;;;;;4976920;28;20500;-72
2023/05/15 08:59:52;;;;;;;30.43;27.77;;;17.10;99.90;;;;;;4976707;28;20455;-72
2023/05/15 09:02:21;;;;;;;31.17;28.40;;;17.20;99.90;;;;;;4976018;28;20434;-72
2023/05/15 09:04:50;;;;;;;27.73;25.33;;;17.30;99.90;;;;;;4975907;28;20459;-72
2023/05/15 09:07:20;;;;;;;27.73;25.33;;;17.30;99.90;;;;;;4976475;28;20496;-72
2023/05/15 09:09:48;;;;;;;28.87;26.37;;;17.40;99.90;;;;;;4976151;28;20431;-72
2023/05/15 09:12:16;;;;;;;28.17;25.63;;;17.40;99.90;;;;;;4976128;28;20420;-72
2023/05/15 09:14:45;;;;;;;28.73;26.30;;;17.50;99.90;;;;;;4975894;28;20856;-71
2023/05/15 09:17:13;;;;;;;28.80;26.20;;;17.50;99.90;;;;;;4975978;28;20866;-72
2023/05/15 09:19:42;;;;;;;25.97;23.77;;;17.60;99.90;;;;;;4974702;28;20483;-71
2023/05/15 09:22:22;;;;;;;27.47;25.17;;;17.60;99.90;;;;;;4974865;28;20472;-71
2023/05/15 09:24:51;;;;;;;27.13;24.73;;;17.70;99.90;;;;;;4974562;28;20460;-72
2023/05/15 09:27:20;;;;;;;26.83;24.50;;;17.80;99.90;;;;;;4975915;28;20914;-71
2023/05/15 09:29:50;;;;;;;24.70;22.70;;;17.80;99.90;;;;;;4975735;28;20424;-71
2023/05/15 09:32:18;;;;;;;25.63;23.40;;;17.90;99.90;;;;;;4975806;28;20420;-72
2023/05/15 09:34:47;;;;;;;27.10;24.50;;;18.00;99.90;;;;;;4974295;28;20860;-71
2023/05/15 09:37:30;;;;;;;26.13;23.80;;;18.10;99.90;;;;;;4974180;28;20476;-72
2023/05/15 09:40:09;;;;;;;26.70;24.30;;;18.20;99.90;;;;;;4975621;28;20463;-72
2023/05/15 09:42:37;;;;;;;25.60;23.50;;;18.30;99.90;;;;;;4974601;28;20442;-72
2023/05/15 09:45:16;;;;;;;25.10;23.00;;;18.40;99.90;;;;;;4973756;28;20496;-73
2023/05/15 09:47:45;;;;;;;24.57;22.37;;;18.50;99.90;;;;;;4975205;28;20396;-71
2023/05/15 09:50:21;;;;;;;27.57;25.27;;;18.60;99.90;;;;;;4974620;28;20457;-72
2023/05/15 09:52:50;;;;;;;28.10;25.60;;;18.70;99.90;;;;;;4975081;28;20502;-72
2023/05/15 09:55:21;;;;;;;27.80;25.30;;;18.70;99.90;;;;;;4974879;28;20466;-72
2023/05/15 09:58:05;;;;;;;27.27;24.93;;;18.80;99.90;;;;;;4976154;28;20804;-72
2023/05/15 10:00:34;;;;;;;27.10;24.80;;;18.80;99.90;;;;;;4975044;28;20460;-73
2023/05/15 10:03:03;;;;;;;28.13;25.60;;;18.90;99.90;;;;;;4975374;28;20465;-72
2023/05/15 10:05:32;;;;;;;26.83;24.53;;;18.90;99.90;;;;;;4973708;28;20544;-72
2023/05/15 10:08:13;;;;;;;27.20;25.00;;;18.90;99.90;;;;;;4975266;28;20476;-72
2023/05/15 10:10:42;;;;;;;26.43;24.13;;;18.90;99.90;;;;;;4975129;28;20429;-72
2023/05/15 10:13:11;;;;;;;27.10;24.70;;;18.90;99.90;;;;;;4975013;28;20473;-72
2023/05/15 10:15:40;;;;;;;28.60;26.20;;;18.90;99.90;;;;;;4974750;28;20466;-72
2023/05/15 10:18:08;;;;;;;28.90;26.27;;;19.00;99.90;;;;;;4974809;28;20457;-72
2023/05/15 10:20:37;;;;;;;28.73;26.33;;;19.00;99.90;;;;;;4974845;28;20811;-72
2023/05/15 10:23:10;;;;;;;27.50;25.10;;;19.00;99.90;;;;;;4974977;28;20450;-72
2023/05/15 10:25:45;;;;;;;26.00;23.73;;;19.10;99.90;;;;;;4974669;28;20609;-72
2023/05/15 10:28:14;;;;;;;25.13;22.93;;;19.10;99.90;;;;;;4973616;28;20483;-72
2023/05/15 10:30:43;;;;;;;27.93;25.37;;;19.20;99.90;;;;;;4974050;28;20453;-72
2023/05/15 10:33:12;;;;;;;26.63;24.27;;;19.30;99.90;;;;;;4974431;28;20433;-73
2023/05/15 10:35:41;;;;;;;25.50;23.13;;;19.40;99.90;;;;;;4973063;28;20473;-72
2023/05/15 10:38:10;;;;;;;24.30;22.20;;;19.40;99.90;;;;;;4973403;28;20489;-72
2023/05/15 10:40:41;;;;;;;26.03;23.83;;;19.60;99.90;;;;;;4974665;28;20477;-72
2023/05/15 10:43:11;;;;;;;26.67;24.23;;;19.60;99.90;;;;;;4974733;28;20783;-73
2023/05/15 10:45:39;;;;;;;23.03;21.10;;;19.60;99.90;;;;;;4972928;28;20928;-72
2023/05/15 10:48:11;;;;;;;22.67;20.60;;;19.60;99.90;;;;;;4974922;28;20840;-72
2023/05/15 10:50:39;;;;;;;24.50;22.37;;;19.60;99.90;;;;;;4974356;28;20426;-72
2023/05/15 10:53:09;;;;;;;23.27;21.07;;;19.60;99.90;;;;;;4974536;28;20532;-72
2023/05/15 10:55:39;;;;;;;25.77;23.70;;;19.70;99.90;;;;;;4974221;28;20460;-72
2023/05/15 10:58:09;;;;;;;24.87;22.67;;;19.70;99.90;;;;;;4974195;28;20973;-72
2023/05/15 11:00:42;;;;;;;24.23;22.13;;;19.70;99.90;;;;;;4974615;28;20533;-73
2023/05/15 11:03:14;;;;;;;24.57;22.47;;;19.80;99.90;;;;;;4974561;28;20771;-72
2023/05/15 11:06:07;;;;;;;24.60;22.50;;;19.80;99.90;;;;;;4973137;28;21065;-73
2023/05/15 11:08:36;;;;;;;24.17;22.17;;;19.80;99.90;;;;;;4974583;28;20426;-71
2023/05/15 11:11:06;;;;;;;25.93;23.63;;;19.80;99.90;;;;;;4974377;28;20809;-73
2023/05/15 11:14:11;;;;;;;23.33;21.37;;;19.80;99.90;;;;;;4972842;28;20556;-72
2023/05/15 11:17:03;;;;;;;21.90;20.07;;;19.80;99.90;;;;;;4973914;28;20836;-72
2023/05/15 11:19:34;;;;;;;22.60;20.63;;;19.90;99.90;;;;;;4972741;28;20450;-72
2023/05/15 11:22:16;;;;;;;22.50;20.50;;;19.90;99.90;;;;;;4974147;28;20430;-72
2023/05/15 11:24:50;;;;;;;21.70;19.80;;;19.90;99.90;;;;;;4972818;28;20491;-72
2023/05/15 11:27:22;;;;;;;19.57;17.57;;;20.00;99.90;;;;;;4975295;28;20500;-72
2023/05/15 11:30:11;;;;;;;19.60;17.90;;;20.00;99.90;;;;;;4976360;28;20442;-73
2023/05/15 11:32:45;;;;;;;20.23;18.50;;;20.10;99.90;;;;;;4977593;28;20422;-72
2023/05/15 11:35:17;;;;;;;19.03;17.27;;;20.20;99.90;;;;;;4976306;28;20465;-72
2023/05/15 11:37:47;;;;;;;19.50;17.80;;;20.20;99.90;;;;;;4976299;28;20452;-72
2023/05/15 11:40:21;;;;;;;19.03;17.30;;;20.30;99.90;;;;;;4976135;28;20449;-73
2023/05/15 11:43:04;;;;;;;19.60;18.00;;;20.40;99.90;;;;;;4977701;28;20509;-71
2023/05/15 11:45:34;;;;;;;18.73;17.00;;;20.40;99.90;;;;;;4977432;28;20823;-72
2023/05/15 11:48:05;;;;;;;19.73;18.00;;;20.40;99.90;;;;;;4977544;28;20433;-72
2023/05/15 11:50:35;;;;;;;19.97;18.17;;;20.50;99.90;;;;;;4977574;28;20425;-73
2023/05/15 11:53:05;;;;;;;19.63;17.97;;;20.50;99.90;;;;;;4977164;28;20862;-72
2023/05/15 11:55:35;;;;;;;18.27;16.67;;;20.60;99.90;;;;;;4977077;28;20462;-72
2023/05/15 11:58:05;;;;;;;18.93;17.33;;;20.60;99.90;;;;;;4977653;28;20613;-73
2023/05/15 12:00:33;;;;;;;20.27;18.47;;;20.60;99.90;;;;;;4975798;28;20454;-72
2023/05/15 12:03:02;;;;;;;18.60;16.90;;;20.60;99.90;;;;;;4977199;28;20437;-72
2023/05/15 12:05:30;;;;;;;14.57;13.27;;;20.60;99.90;;;;;;4976827;28;20477;-72
2023/05/15 12:07:59;;;;;;;19.23;17.63;;;20.60;99.90;;;;;;4976851;28;20480;-72
2023/05/15 12:10:27;;;;;;;19.70;18.07;;;20.70;99.90;;;;;;4976907;28;20469;-72
2023/05/15 12:12:55;;;;;;;20.13;18.43;;;20.70;99.90;;;;;;4976967;28;20441;-72
2023/05/15 12:15:24;;;;;;;17.47;15.93;;;20.70;99.90;;;;;;4976658;28;20530;-72
2023/05/15 12:17:53;;;;;;;19.20;17.60;;;20.70;99.90;;;;;;4976693;28;20458;-72
2023/05/15 12:20:21;;;;;;;19.07;17.23;;;20.80;99.90;;;;;;4976908;28;20453;-72
2023/05/15 12:22:49;;;;;;;18.70;17.17;;;20.80;99.90;;;;;;4976675;28;20944;-72
2023/05/15 12:25:17;;;;;;;17.60;16.10;;;20.80;99.90;;;;;;4976421;28;20473;-72
2023/05/15 12:27:45;;;;;;;17.53;15.93;;;20.80;99.90;;;;;;4976515;28;20438;-72
2023/05/15 12:30:14;;;;;;;20.63;18.83;;;20.80;99.90;;;;;;4976490;28;20935;-72
2023/05/15 12:32:44;;;;;;;20.87;18.90;;;20.80;99.90;;;;;;4975083;28;20826;-72
2023/05/15 12:35:12;;;;;;;21.20;19.27;;;20.90;99.90;;;;;;4976662;28;20493;-72
2023/05/15 12:37:42;;;;;;;21.30;19.20;;;20.90;99.90;;;;;;4975430;28;20437;-72
2023/05/15 12:40:11;;;;;;;21.20;19.30;;;21.00;99.90;;;;;;4976292;28;20434;-72
2023/05/15 12:42:41;;;;;;;19.00;17.40;;;21.00;99.90;;;;;;4976476;28;20440;-72